createdAt,value
2023-05-10T00:00:10.404Z,0.00
2023-05-10T00:19:05.739Z,0.00
2023-05-10T00:20:06.732Z,0.00
2023-05-10T00:21:06.708Z,0.00
2023-05-10T00:22:06.702Z,0.00
2023-05-10T00:23:06.705Z,0.00
2023-05-10T00:24:06.674Z,0.00
2023-05-10T00:25:06.658Z,0.00
2023-05-10T00:26:27.644Z,0.00
2023-05-10T00:27:27.671Z,0.00
2023-05-10T00:28:27.626Z,0.00
2023-05-10T00:29:27.617Z,0.00
2023-05-10T00:30:06.624Z,0.00
2023-05-10T00:31:06.592Z,0.00
2023-05-10T00:32:27.620Z,0.00
2023-05-10T00:33:27.571Z,0.00
2023-05-10T00:34:27.559Z,0.00
2023-05-10T00:35:06.551Z,0.00
2023-05-10T00:36:06.541Z,0.00
2023-05-10T00:37:27.543Z,0.00
2023-05-10T00:38:27.516Z,0.00
2023-05-10T00:39:27.508Z,0.00
2023-05-10T00:40:06.493Z,0.00
2023-05-10T00:41:06.495Z,0.00
2023-05-10T00:42:27.494Z,0.00
2023-05-10T00:43:27.460Z,0.00
2023-05-10T00:44:27.483Z,0.00
2023-05-10T00:45:07.019Z,0.00
2023-05-10T00:46:06.447Z,0.00
2023-05-10T00:47:27.450Z,0.00
2023-05-10T00:48:27.400Z,0.00
2023-05-10T00:49:27.401Z,0.00
2023-05-10T00:50:06.382Z,0.00
2023-05-10T00:51:06.375Z,0.00
2023-05-10T00:52:27.368Z,0.00
2023-05-10T00:53:27.355Z,0.00
2023-05-10T00:54:06.407Z,0.00
2023-05-10T00:55:06.327Z,0.00
2023-05-10T00:56:06.316Z,0.00
2023-05-10T00:57:06.299Z,0.00
2023-05-10T00:58:27.321Z,0.00
2023-05-10T00:59:06.279Z,0.00
2023-05-10T01:00:06.279Z,0.00
2023-05-10T01:01:06.276Z,0.00
2023-05-10T01:02:06.304Z,0.00
2023-05-10T01:03:27.275Z,0.00
2023-05-10T06:19:19.948Z,3732.00
2023-05-10T06:20:20.927Z,3716.00
2023-05-10T06:21:20.926Z,3712.00
2023-05-10T06:22:20.911Z,3716.00
2023-05-10T06:23:20.914Z,3764.00
2023-05-10T06:24:20.931Z,3820.00
2023-05-10T06:25:20.887Z,3892.00
2023-05-10T06:26:20.869Z,3972.00
2023-05-10T06:27:20.858Z,4048.00
2023-05-10T06:28:20.859Z,4124.00
2023-05-10T06:29:20.868Z,4192.00
2023-05-10T06:30:20.833Z,4248.00
2023-05-10T06:31:20.843Z,4288.00
2023-05-10T06:32:20.819Z,4332.00
2023-05-10T06:33:20.809Z,4400.00
2023-05-10T06:34:20.798Z,4456.00
2023-05-10T06:35:20.770Z,4508.00
2023-05-10T06:36:20.756Z,4556.00
2023-05-10T06:37:20.775Z,4572.00
2023-05-10T06:38:20.752Z,4604.00
2023-05-10T06:39:20.747Z,4636.00
2023-05-10T06:40:20.710Z,4692.00
2023-05-10T06:41:21.619Z,4728.00
2023-05-10T06:42:20.694Z,4740.00
2023-05-10T06:43:20.703Z,4752.00
2023-05-10T06:44:20.709Z,4736.00
2023-05-10T06:45:20.831Z,4704.00
2023-05-10T06:46:20.696Z,4640.00
2023-05-10T06:47:20.648Z,4584.00
2023-05-10T06:48:20.655Z,4544.00
2023-05-10T06:49:20.627Z,4524.00
2023-05-10T06:50:20.616Z,4524.00
2023-05-10T06:51:20.608Z,4496.00
2023-05-10T06:52:20.580Z,4452.00
2023-05-10T06:53:20.581Z,4396.00
2023-05-10T06:54:20.581Z,4360.00
2023-05-10T06:55:20.550Z,4328.00
2023-05-10T06:56:20.583Z,4288.00
2023-05-10T06:57:31.265Z,4284.00
2023-05-10T06:58:20.540Z,4348.00
2023-05-10T06:59:20.570Z,4496.00
2023-05-10T07:00:20.787Z,4672.00
2023-05-10T07:01:20.626Z,4820.00
2023-05-10T07:02:20.552Z,4912.00
2023-05-10T07:03:20.540Z,4972.00
2023-05-10T07:04:20.530Z,4984.00
2023-05-10T07:05:20.744Z,4968.00
2023-05-10T07:06:32.235Z,4944.00
2023-05-10T07:07:20.445Z,4904.00
2023-05-10T07:08:20.416Z,4868.00
2023-05-10T07:09:20.435Z,4828.00
2023-05-10T07:10:20.419Z,4764.00
2023-05-10T07:11:20.398Z,4696.00
2023-05-10T07:12:20.453Z,4632.00
2023-05-10T07:13:20.475Z,4596.00
2023-05-10T07:14:20.372Z,4560.00
2023-05-10T07:15:20.389Z,4520.00
2023-05-10T07:16:20.363Z,4472.00
2023-05-10T07:17:20.335Z,4428.00
2023-05-10T07:18:20.320Z,4380.00
2023-05-10T07:19:20.304Z,4384.00
2023-05-10T07:20:20.286Z,4416.00
2023-05-10T07:21:20.355Z,4420.00
2023-05-10T07:22:20.292Z,4368.00
2023-05-10T07:23:20.259Z,4280.00
2023-05-10T07:24:20.287Z,4164.00
2023-05-10T07:25:20.245Z,4072.00
2023-05-10T07:26:20.221Z,4020.00
2023-05-10T07:27:20.231Z,3996.00
2023-05-10T07:28:20.215Z,3960.00
2023-05-10T07:29:20.234Z,3860.00
2023-05-10T07:30:20.218Z,3764.00
2023-05-10T07:31:20.172Z,3700.00
2023-05-10T07:32:20.234Z,3656.00
2023-05-10T07:33:20.203Z,3624.00
2023-05-10T07:34:20.153Z,3552.00
2023-05-10T07:35:20.114Z,3476.00
2023-05-10T07:36:20.128Z,3464.00
2023-05-10T07:37:20.098Z,3444.00
2023-05-10T07:38:20.109Z,3464.00
2023-05-10T07:39:26.607Z,3472.00
2023-05-10T07:40:20.122Z,3472.00
2023-05-10T07:41:20.058Z,3448.00
2023-05-10T07:42:20.065Z,3444.00
2023-05-10T07:43:20.048Z,3500.00
2023-05-10T07:44:20.053Z,3592.00
2023-05-10T07:45:20.004Z,3696.00
2023-05-10T07:46:20.021Z,3832.00
2023-05-10T07:47:20.014Z,4016.00
2023-05-10T07:48:19.979Z,4244.00
2023-05-10T07:49:20.010Z,4428.00
2023-05-10T07:50:19.953Z,4540.00
2023-05-10T07:51:20.000Z,4640.00
2023-05-10T07:52:22.432Z,4724.00
2023-05-10T07:53:19.940Z,4808.00
2023-05-10T07:54:19.926Z,4900.00
2023-05-10T07:55:19.910Z,5016.00
2023-05-10T07:56:19.899Z,5160.00
2023-05-10T07:57:19.873Z,5300.00
2023-05-10T07:58:19.870Z,5360.00
2023-05-10T07:59:19.876Z,5324.00
2023-05-10T08:00:19.860Z,5252.00
2023-05-10T08:01:19.852Z,5232.00
2023-05-10T08:02:19.896Z,5212.00
2023-05-10T08:03:20.021Z,5160.00
2023-05-10T08:04:19.891Z,5076.00
2023-05-10T08:05:19.922Z,5060.00
2023-05-10T08:06:19.780Z,5088.00
2023-05-10T08:07:19.794Z,5160.00
2023-05-10T08:08:19.783Z,5140.00
2023-05-10T08:09:19.773Z,5108.00
2023-05-10T08:10:19.770Z,5136.00
2023-05-10T08:11:19.770Z,5188.00
2023-05-10T08:12:19.717Z,5200.00
2023-05-10T08:13:19.711Z,5164.00
2023-05-10T08:14:19.721Z,5120.00
2023-05-10T08:15:19.855Z,5124.00
2023-05-10T08:16:19.745Z,5172.00
2023-05-10T08:17:20.275Z,5224.00
2023-05-10T08:18:21.896Z,5260.00
2023-05-10T08:19:19.661Z,5280.00
2023-05-10T08:20:19.659Z,5288.00
2023-05-10T08:21:19.622Z,5316.00
2023-05-10T08:22:19.616Z,5376.00
2023-05-10T08:23:19.674Z,5444.00
2023-05-10T08:24:19.615Z,5496.00
2023-05-10T08:25:19.847Z,5516.00
2023-05-10T08:26:19.576Z,5524.00
2023-05-10T08:27:19.548Z,5560.00
2023-05-10T08:28:19.534Z,5616.00
2023-05-10T08:29:19.597Z,5724.00
2023-05-10T08:30:19.537Z,5832.00
2023-05-10T08:31:19.604Z,5864.00
2023-05-10T08:32:19.598Z,5756.00
2023-05-10T08:33:19.552Z,5540.00
2023-05-10T08:34:19.552Z,5372.00
2023-05-10T08:35:19.477Z,5372.00
2023-05-10T08:36:19.529Z,5560.00
2023-05-10T08:37:19.455Z,5804.00
2023-05-10T08:38:19.446Z,6012.00
2023-05-10T08:39:29.337Z,6172.00
2023-05-10T08:40:19.413Z,6260.00
2023-05-10T08:41:19.437Z,6324.00
2023-05-10T08:42:19.394Z,6312.00
2023-05-10T08:43:19.377Z,6336.00
2023-05-10T08:44:19.421Z,6360.00
2023-05-10T08:45:19.689Z,6396.00
2023-05-10T08:46:19.417Z,6508.00
2023-05-10T08:47:19.363Z,6660.00
2023-05-10T08:48:19.335Z,6776.00
2023-05-10T08:49:19.323Z,6788.00
2023-05-10T08:50:19.310Z,6712.00
2023-05-10T08:51:19.291Z,6604.00
2023-05-10T08:52:19.354Z,6520.00
2023-05-10T08:53:19.291Z,6440.00
2023-05-10T08:54:19.292Z,6320.00
2023-05-10T08:55:19.392Z,6088.00
2023-05-10T08:56:19.235Z,5764.00
2023-05-10T08:57:19.229Z,5336.00
2023-05-10T08:58:19.211Z,5104.00
2023-05-10T08:59:19.243Z,5168.00
2023-05-10T09:00:19.206Z,5280.00
2023-05-10T09:01:19.282Z,5256.00
2023-05-10T09:02:19.177Z,5128.00
2023-05-10T09:03:19.194Z,5080.00
2023-05-10T09:04:19.250Z,5100.00
2023-05-10T09:05:19.799Z,4972.00
2023-05-10T09:06:19.157Z,4460.00
2023-05-10T09:07:19.108Z,3864.00
2023-05-10T09:08:19.109Z,3512.00
2023-05-10T09:09:19.096Z,3440.00
2023-05-10T09:10:19.128Z,3432.00
2023-05-10T09:11:19.083Z,3400.00
2023-05-10T09:12:19.058Z,3368.00
2023-05-10T09:13:19.077Z,3388.00
2023-05-10T09:14:19.058Z,3280.00
2023-05-10T09:15:19.220Z,3112.00
2023-05-10T09:16:22.015Z,3096.00
2023-05-10T09:17:19.044Z,3188.00
2023-05-10T09:18:19.088Z,3152.00
2023-05-10T09:19:19.003Z,2956.00
2023-05-10T09:20:18.994Z,2856.00
2023-05-10T09:21:18.969Z,2748.00
2023-05-10T09:22:18.951Z,2648.00
2023-05-10T09:23:18.945Z,2748.00
2023-05-10T09:24:18.958Z,2924.00
2023-05-10T09:25:19.270Z,3024.00
2023-05-10T09:26:18.903Z,3112.00
2023-05-10T09:27:18.919Z,3212.00
2023-05-10T09:28:18.894Z,3412.00
2023-05-10T09:29:18.906Z,3592.00
2023-05-10T09:30:18.948Z,3652.00
2023-05-10T09:31:18.955Z,3508.00
2023-05-10T09:32:18.845Z,3416.00
2023-05-10T09:33:18.885Z,3536.00
2023-05-10T09:34:18.855Z,3628.00
2023-05-10T09:35:19.054Z,3632.00
2023-05-10T09:36:18.797Z,3768.00
2023-05-10T09:37:18.809Z,3912.00
2023-05-10T09:38:18.800Z,3964.00
2023-05-10T09:39:18.791Z,3976.00
2023-05-10T09:40:18.820Z,4108.00
2023-05-10T09:41:18.768Z,4332.00
2023-05-10T09:42:18.737Z,4492.00
2023-05-10T09:43:18.729Z,4476.00
2023-05-10T09:44:18.763Z,4328.00
2023-05-10T09:45:18.902Z,4172.00
2023-05-10T09:46:18.778Z,4184.00
2023-05-10T09:47:18.700Z,4344.00
2023-05-10T09:48:18.672Z,4692.00
2023-05-10T09:49:18.670Z,5012.00
2023-05-10T09:50:18.727Z,4760.00
2023-05-10T09:51:18.674Z,4376.00
2023-05-10T09:52:18.633Z,4304.00
2023-05-10T09:53:18.647Z,4068.00
2023-05-10T09:54:18.643Z,3768.00
2023-05-10T09:55:18.729Z,3284.00
2023-05-10T09:56:18.601Z,2780.00
2023-05-10T09:57:18.607Z,2476.00
2023-05-10T09:58:18.579Z,2420.00
2023-05-10T09:59:18.561Z,2824.00
2023-05-10T10:00:18.584Z,3188.00
2023-05-10T10:01:18.550Z,3352.00
2023-05-10T10:02:18.530Z,3360.00
2023-05-10T10:03:18.530Z,2964.00
2023-05-10T10:04:18.523Z,2652.00
2023-05-10T10:05:18.763Z,2632.00
2023-05-10T10:06:29.067Z,2716.00
2023-05-10T10:07:18.471Z,2844.00
2023-05-10T10:08:18.503Z,3096.00
2023-05-10T10:09:18.451Z,3324.00
2023-05-10T10:10:18.484Z,3484.00
2023-05-10T10:11:18.434Z,3608.00
2023-05-10T10:12:18.442Z,3588.00
2023-05-10T10:13:18.458Z,3520.00
2023-05-10T10:14:18.394Z,3516.00
2023-05-10T10:15:18.684Z,3564.00
2023-05-10T10:16:18.442Z,3712.00
2023-05-10T10:17:18.358Z,3868.00
2023-05-10T10:18:18.383Z,3796.00
2023-05-10T10:19:18.340Z,3516.00
2023-05-10T10:20:18.634Z,3292.00
2023-05-10T10:21:18.324Z,3232.00
2023-05-10T10:22:18.331Z,3340.00
2023-05-10T10:23:18.312Z,3460.00
2023-05-10T10:24:18.290Z,3524.00
2023-05-10T10:25:18.745Z,3580.00
2023-05-10T10:26:18.295Z,3652.00
2023-05-10T10:27:18.268Z,3736.00
2023-05-10T10:28:18.263Z,3820.00
2023-05-10T10:29:18.227Z,3936.00
2023-05-10T10:30:18.256Z,3984.00
2023-05-10T10:31:18.259Z,3968.00
2023-05-10T10:32:18.193Z,3988.00
2023-05-10T10:33:27.749Z,4072.00
2023-05-10T10:34:18.195Z,4236.00
2023-05-10T10:35:18.420Z,4528.00
2023-05-10T10:36:18.195Z,4772.00
2023-05-10T10:37:18.178Z,4904.00
2023-05-10T10:38:18.156Z,4972.00
2023-05-10T10:39:18.140Z,5004.00
2023-05-10T10:40:18.157Z,5012.00
2023-05-10T10:41:18.117Z,5084.00
2023-05-10T10:42:18.111Z,5236.00
2023-05-10T10:43:18.092Z,5464.00
2023-05-10T10:44:18.070Z,5680.00
2023-05-10T10:45:18.521Z,5740.00
2023-05-10T10:46:18.252Z,5636.00
2023-05-10T10:47:18.039Z,5572.00
2023-05-10T10:48:18.044Z,5304.00
2023-05-10T10:49:18.038Z,4964.00
2023-05-10T10:50:18.022Z,4604.00
2023-05-10T10:51:18.014Z,4096.00
2023-05-10T10:52:18.034Z,3752.00
2023-05-10T10:53:18.035Z,3648.00
2023-05-10T10:54:17.993Z,3632.00
2023-05-10T10:55:18.177Z,3896.00
2023-05-10T10:56:18.017Z,4280.00
2023-05-10T10:57:17.947Z,4532.00
2023-05-10T10:58:17.940Z,4520.00
2023-05-10T10:59:17.905Z,4228.00
2023-05-10T11:00:17.921Z,4020.00
2023-05-10T11:01:17.941Z,3764.00
2023-05-10T11:02:17.901Z,3644.00
2023-05-10T11:03:17.908Z,3768.00
2023-05-10T11:04:17.881Z,3608.00
2023-05-10T11:05:18.057Z,3656.00
2023-05-10T11:06:17.848Z,3756.00
2023-05-10T11:07:17.835Z,3568.00
2023-05-10T11:08:17.891Z,3424.00
2023-05-10T11:09:17.821Z,3428.00
2023-05-10T11:10:17.821Z,3540.00
2023-05-10T11:11:17.784Z,3740.00
2023-05-10T11:12:17.788Z,3936.00
2023-05-10T11:13:17.786Z,4180.00
2023-05-10T11:14:17.768Z,4388.00
2023-05-10T11:15:18.025Z,4284.00
2023-05-10T11:16:17.788Z,4228.00
2023-05-10T11:17:17.716Z,4216.00
2023-05-10T11:18:17.789Z,4192.00
2023-05-10T11:19:17.691Z,4452.00
2023-05-10T11:20:17.947Z,4644.00
2023-05-10T11:21:17.742Z,4824.00
2023-05-10T11:22:17.676Z,4836.00
2023-05-10T11:23:17.665Z,4804.00
2023-05-10T11:24:17.649Z,4884.00
2023-05-10T11:25:17.655Z,4884.00
2023-05-10T11:26:17.624Z,4788.00
2023-05-10T11:27:17.608Z,4796.00
2023-05-10T11:28:17.610Z,4992.00
2023-05-10T11:29:17.605Z,5128.00
2023-05-10T11:30:17.869Z,5244.00
2023-05-10T11:31:17.622Z,5496.00
2023-05-10T11:32:17.594Z,5708.00
2023-05-10T11:33:17.547Z,5852.00
2023-05-10T11:34:17.538Z,5920.00
2023-05-10T11:35:17.543Z,5924.00
2023-05-10T11:36:17.527Z,5940.00
2023-05-10T11:37:17.500Z,5916.00
2023-05-10T11:38:17.520Z,5876.00
2023-05-10T11:39:17.499Z,5892.00
2023-05-10T11:40:17.632Z,5928.00
2023-05-10T11:41:17.483Z,5996.00
2023-05-10T11:42:17.467Z,6060.00
2023-05-10T11:43:17.451Z,6080.00
2023-05-10T11:44:17.439Z,5968.00
2023-05-10T11:45:17.450Z,5688.00
2023-05-10T11:46:17.439Z,5524.00
2023-05-10T11:47:17.403Z,5348.00
2023-05-10T11:48:17.382Z,5100.00
2023-05-10T11:49:17.386Z,4940.00
2023-05-10T11:50:17.578Z,5012.00
2023-05-10T11:51:17.354Z,5112.00
2023-05-10T11:52:17.356Z,5120.00
2023-05-10T11:53:17.341Z,5084.00
2023-05-10T11:54:17.348Z,5252.00
2023-05-10T11:55:17.341Z,5628.00
2023-05-10T11:56:17.327Z,5764.00
2023-05-10T11:57:17.311Z,5776.00
2023-05-10T11:58:17.333Z,5892.00
2023-05-10T11:59:17.265Z,5948.00
2023-05-10T12:00:17.640Z,5652.00
2023-05-10T12:01:17.267Z,5264.00
2023-05-10T12:02:17.263Z,5176.00
2023-05-10T12:03:17.273Z,5640.00
2023-05-10T12:04:17.567Z,6212.00
2023-05-10T12:05:17.228Z,6560.00
2023-05-10T12:06:17.206Z,6756.00
2023-05-10T12:07:17.185Z,6804.00
2023-05-10T12:08:17.184Z,6740.00
2023-05-10T12:09:19.183Z,6832.00
2023-05-10T12:10:17.326Z,6940.00
2023-05-10T12:11:17.152Z,7028.00
2023-05-10T12:12:17.140Z,7048.00
2023-05-10T12:13:17.111Z,6948.00
2023-05-10T12:14:17.098Z,6852.00
2023-05-10T12:15:17.138Z,6732.00
2023-05-10T12:16:17.115Z,6696.00
2023-05-10T12:17:17.084Z,6716.00
2023-05-10T12:18:17.190Z,6844.00
2023-05-10T12:20:17.191Z,7148.00
2023-05-10T12:21:17.789Z,7228.00
2023-05-10T12:22:17.775Z,7184.00
2023-05-10T12:23:17.767Z,7092.00
2023-05-10T12:24:17.753Z,7124.00
2023-05-10T12:25:17.759Z,7244.00
2023-05-10T12:26:17.734Z,7396.00
2023-05-10T12:27:17.714Z,7656.00
2023-05-10T12:28:17.703Z,7644.00
2023-05-10T12:29:17.823Z,7824.00
2023-05-10T12:30:17.831Z,8032.00
2023-05-10T12:31:17.686Z,8224.00
2023-05-10T12:32:17.723Z,8248.00
2023-05-10T12:33:17.652Z,7916.00
2023-05-10T12:34:17.634Z,7556.00
2023-05-10T12:35:17.636Z,7144.00
2023-05-10T12:36:17.638Z,6748.00
2023-05-10T12:37:17.602Z,6432.00
2023-05-10T12:38:17.591Z,6768.00
2023-05-10T12:39:17.583Z,7188.00
2023-05-10T12:40:18.537Z,7712.00
2023-05-10T12:41:17.679Z,7936.00
2023-05-10T12:42:17.562Z,8064.00
2023-05-10T12:43:17.542Z,7656.00
2023-05-10T12:44:17.530Z,7280.00
2023-05-10T12:45:17.536Z,7648.00
2023-05-10T12:46:17.553Z,8808.00
2023-05-10T12:47:17.496Z,9556.00
2023-05-10T12:48:17.484Z,9724.00
2023-05-10T12:49:17.474Z,9628.00
2023-05-10T12:50:17.643Z,9364.00
2023-05-10T12:51:17.450Z,8984.00
2023-05-10T12:52:17.440Z,8312.00
2023-05-10T12:53:17.419Z,7384.00
2023-05-10T12:54:17.422Z,6904.00
2023-05-10T12:55:17.424Z,6784.00
2023-05-10T12:56:17.441Z,6928.00
2023-05-10T12:57:17.392Z,7068.00
2023-05-10T12:58:32.004Z,7372.00
2023-05-10T12:59:17.384Z,7384.00
2023-05-10T13:00:17.676Z,7356.00
2023-05-10T13:01:17.368Z,7556.00
2023-05-10T13:02:17.329Z,7664.00
2023-05-10T13:03:17.321Z,7328.00
2023-05-10T13:04:17.336Z,6448.00
2023-05-10T13:05:17.349Z,5792.00
2023-05-10T13:06:17.283Z,5572.00
2023-05-10T13:07:17.277Z,5264.00
2023-05-10T13:08:17.257Z,4844.00
2023-05-10T13:09:17.240Z,4916.00
2023-05-10T13:10:17.508Z,5204.00
2023-05-10T13:11:17.237Z,5608.00
2023-05-10T13:12:17.210Z,6376.00
2023-05-10T13:13:17.205Z,6924.00
2023-05-10T13:14:17.204Z,6772.00
2023-05-10T13:15:17.192Z,6568.00
2023-05-10T13:16:17.209Z,6844.00
2023-05-10T13:17:17.196Z,7076.00
2023-05-10T13:18:17.212Z,7252.00
2023-05-10T13:19:17.244Z,7572.00
2023-05-10T13:20:17.382Z,7956.00
2023-05-10T13:21:17.113Z,7980.00
2023-05-10T13:22:22.947Z,7700.00
2023-05-10T13:23:17.114Z,7444.00
2023-05-10T13:24:17.093Z,7132.00
2023-05-10T13:25:17.092Z,6800.00
2023-05-10T13:26:17.063Z,6532.00
2023-05-10T13:27:17.043Z,6512.00
2023-05-10T13:28:17.038Z,6844.00
2023-05-10T13:29:17.024Z,7200.00
2023-05-10T13:30:17.280Z,7380.00
2023-05-10T13:31:17.072Z,7536.00
2023-05-10T13:32:16.995Z,7784.00
2023-05-10T13:33:17.004Z,8012.00
2023-05-10T13:34:16.967Z,8060.00
2023-05-10T13:35:17.009Z,8224.00
2023-05-10T13:36:16.973Z,8900.00
2023-05-10T13:37:16.963Z,9336.00
2023-05-10T13:38:16.928Z,9988.00
2023-05-10T13:39:16.922Z,9700.00
2023-05-10T13:40:17.302Z,8988.00
2023-05-10T13:41:16.894Z,9036.00
2023-05-10T13:42:16.900Z,8892.00
2023-05-10T13:43:16.877Z,8892.00
2023-05-10T13:44:16.857Z,8904.00
2023-05-10T13:45:17.047Z,8220.00
2023-05-10T13:46:16.927Z,7988.00
2023-05-10T13:47:16.855Z,8464.00
2023-05-10T13:48:16.815Z,9304.00
2023-05-10T13:49:16.831Z,10056.00
2023-05-10T13:50:16.810Z,10496.00
2023-05-10T13:51:16.779Z,11092.00
2023-05-10T13:52:16.770Z,10184.00
2023-05-10T13:53:16.798Z,8576.00
2023-05-10T13:54:16.748Z,7316.00
2023-05-10T13:55:17.090Z,6860.00
2023-05-10T13:56:16.747Z,7184.00
2023-05-10T13:57:16.722Z,7956.00
2023-05-10T13:58:16.717Z,7900.00
2023-05-10T13:59:16.709Z,7400.00
2023-05-10T14:00:16.703Z,6784.00
2023-05-10T14:01:16.709Z,6024.00
2023-05-10T14:02:16.676Z,5464.00
2023-05-10T14:03:16.729Z,5152.00
2023-05-10T14:04:16.644Z,5220.00
2023-05-10T14:05:17.358Z,6492.00
2023-05-10T14:06:16.635Z,7696.00
2023-05-10T14:07:16.603Z,7900.00
2023-05-10T14:08:16.606Z,11052.00
2023-05-10T14:09:16.598Z,12316.00
2023-05-10T14:10:16.602Z,8684.00
2023-05-10T14:11:16.578Z,8572.00
2023-05-10T14:12:16.556Z,8080.00
2023-05-10T14:13:16.551Z,7456.00
2023-05-10T14:14:16.546Z,6604.00
2023-05-10T14:15:16.754Z,5992.00
2023-05-10T14:16:16.529Z,5520.00
2023-05-10T14:17:16.505Z,4828.00
2023-05-10T14:18:16.541Z,4200.00
2023-05-10T14:19:16.483Z,4228.00
2023-05-10T14:20:16.478Z,4868.00
2023-05-10T14:21:16.455Z,5760.00
2023-05-10T14:22:16.456Z,6736.00
2023-05-10T14:23:16.437Z,6720.00
2023-05-10T14:24:16.424Z,6060.00
2023-05-10T14:25:16.674Z,5896.00
2023-05-10T14:26:16.404Z,6120.00
2023-05-10T14:27:16.385Z,6816.00
2023-05-10T14:28:16.400Z,7056.00
2023-05-10T14:29:16.387Z,7796.00
2023-05-10T14:30:16.374Z,9236.00
2023-05-10T14:31:16.359Z,10704.00
2023-05-10T14:32:16.455Z,9816.00
2023-05-10T14:33:16.319Z,8908.00
2023-05-10T14:34:16.312Z,7740.00
2023-05-10T14:35:19.142Z,5808.00
2023-05-10T14:36:16.286Z,4632.00
2023-05-10T14:37:16.287Z,4204.00
2023-05-10T14:38:16.294Z,4184.00
2023-05-10T14:39:16.256Z,4424.00
2023-05-10T14:40:16.276Z,4648.00
2023-05-10T14:41:16.239Z,4672.00
2023-05-10T14:42:16.237Z,4540.00
2023-05-10T14:43:16.225Z,4276.00
2023-05-10T14:44:16.199Z,4008.00
2023-05-10T14:45:16.485Z,3772.00
2023-05-10T14:46:16.210Z,3536.00
2023-05-10T14:47:16.169Z,3344.00
2023-05-10T14:48:16.163Z,3284.00
2023-05-10T14:49:16.147Z,3304.00
2023-05-10T14:50:31.819Z,3372.00
2023-05-10T14:51:16.138Z,3416.00
2023-05-10T14:52:16.105Z,3480.00
2023-05-10T14:53:16.096Z,3424.00
2023-05-10T14:54:16.086Z,3240.00
2023-05-10T14:55:16.344Z,3124.00
2023-05-10T14:56:16.079Z,3044.00
2023-05-10T14:57:16.052Z,3160.00
2023-05-10T14:58:16.046Z,3364.00
2023-05-10T14:59:16.029Z,3188.00
2023-05-10T15:00:16.220Z,2724.00
2023-05-10T15:01:16.040Z,2556.00
2023-05-10T15:02:16.049Z,2752.00
2023-05-10T15:03:16.060Z,3064.00
2023-05-10T15:04:15.969Z,3152.00
2023-05-10T15:05:16.270Z,2872.00
2023-05-10T15:06:16.124Z,2496.00
2023-05-10T15:07:15.942Z,2204.00
2023-05-10T15:08:15.946Z,1972.00
2023-05-10T15:09:15.923Z,1780.00
2023-05-10T15:10:15.897Z,1580.00
2023-05-10T15:11:15.916Z,1340.00
2023-05-10T15:12:15.887Z,1072.00
2023-05-10T15:13:15.880Z,788.00
2023-05-10T15:14:15.945Z,556.00
2023-05-10T15:15:16.100Z,420.00
2023-05-10T15:16:15.888Z,432.00
2023-05-10T15:17:15.825Z,548.00
2023-05-10T15:18:15.856Z,620.00
2023-05-10T15:19:15.806Z,680.00
2023-05-10T15:20:15.796Z,996.00
2023-05-10T15:21:15.802Z,1836.00
2023-05-10T15:22:15.787Z,2996.00
2023-05-10T15:23:15.768Z,3720.00
2023-05-10T15:24:15.765Z,4124.00
2023-05-10T15:25:15.957Z,4332.00
2023-05-10T15:26:15.752Z,4460.00
2023-05-10T15:27:15.727Z,4504.00
2023-05-10T15:28:15.706Z,4452.00
2023-05-10T15:29:15.706Z,4304.00
2023-05-10T15:30:15.695Z,4212.00
2023-05-10T15:31:15.730Z,4224.00
2023-05-10T15:32:15.667Z,4376.00
2023-05-10T15:33:15.656Z,4680.00
2023-05-10T15:34:15.638Z,5172.00
2023-05-10T15:35:15.840Z,5360.00
2023-05-10T15:36:15.643Z,5384.00
2023-05-10T15:37:15.609Z,5452.00
2023-05-10T15:38:15.592Z,5276.00
2023-05-10T15:39:15.586Z,5240.00
2023-05-10T15:40:15.578Z,5188.00
2023-05-10T15:41:15.578Z,5028.00
2023-05-10T15:42:15.552Z,4688.00
2023-05-10T15:43:15.545Z,4248.00
2023-05-10T15:44:15.537Z,3852.00
2023-05-10T15:45:15.746Z,3516.00
2023-05-10T15:46:15.545Z,3228.00
2023-05-10T15:47:15.506Z,2876.00
2023-05-10T15:48:15.538Z,2516.00
2023-05-10T15:49:15.486Z,2496.00
2023-05-10T15:50:15.471Z,2788.00
2023-05-10T15:51:15.495Z,3344.00
2023-05-10T15:52:15.438Z,3980.00
2023-05-10T15:53:15.433Z,4700.00
2023-05-10T15:54:15.411Z,5636.00
2023-05-10T15:55:15.606Z,8312.00
2023-05-10T15:56:15.449Z,7640.00
2023-05-10T15:57:15.397Z,7356.00
2023-05-10T15:58:15.376Z,6912.00
2023-05-10T15:59:15.366Z,6228.00
2023-05-10T16:00:15.400Z,5828.00
2023-05-10T16:01:15.393Z,5356.00
2023-05-10T16:02:15.394Z,5000.00
2023-05-10T16:03:15.386Z,4640.00
2023-05-10T16:04:15.311Z,4232.00
2023-05-10T16:05:15.476Z,3932.00
2023-05-10T16:06:15.311Z,3784.00
2023-05-10T16:07:15.288Z,3828.00
2023-05-10T16:08:15.266Z,3876.00
2023-05-10T16:09:15.254Z,3972.00
2023-05-10T16:10:15.249Z,3972.00
2023-05-10T16:11:15.267Z,3968.00
2023-05-10T16:12:15.221Z,3932.00
2023-05-10T16:13:15.235Z,3756.00
2023-05-10T16:14:15.211Z,3496.00
2023-05-10T16:15:15.389Z,3232.00
2023-05-10T16:16:15.263Z,3180.00
2023-05-10T16:17:15.305Z,3052.00
2023-05-10T16:18:15.180Z,2948.00
2023-05-10T16:19:15.212Z,2832.00
2023-05-10T16:20:15.158Z,2612.00
2023-05-10T16:21:15.167Z,2280.00
2023-05-10T16:22:15.111Z,1960.00
2023-05-10T16:23:15.117Z,1820.00
2023-05-10T16:24:15.102Z,1740.00
2023-05-10T16:25:15.416Z,1644.00
2023-05-10T16:26:15.090Z,1536.00
2023-05-10T16:27:15.062Z,1412.00
2023-05-10T16:28:15.049Z,1344.00
2023-05-10T16:29:15.046Z,1316.00
2023-05-10T16:30:15.057Z,1592.00
2023-05-10T16:31:15.075Z,1888.00
2023-05-10T16:32:15.016Z,2268.00
2023-05-10T16:33:14.996Z,2536.00
2023-05-10T16:34:14.983Z,2748.00
2023-05-10T16:35:15.019Z,3008.00
2023-05-10T16:36:14.997Z,3128.00
2023-05-10T16:37:14.955Z,3208.00
2023-05-10T16:38:14.942Z,3196.00
2023-05-10T16:39:14.930Z,3292.00
2023-05-10T16:40:14.923Z,3472.00
2023-05-10T16:41:14.928Z,3732.00
2023-05-10T16:42:14.895Z,4192.00
2023-05-10T16:43:14.895Z,4304.00
2023-05-10T16:44:14.876Z,4160.00
2023-05-10T16:45:14.986Z,3676.00
2023-05-10T16:46:14.888Z,3352.00
2023-05-10T16:47:14.851Z,2572.00
2023-05-10T16:48:14.832Z,1696.00
2023-05-10T16:49:14.828Z,1172.00
2023-05-10T16:50:14.807Z,1116.00
2023-05-10T16:51:14.825Z,892.00
2023-05-10T16:52:14.781Z,664.00
2023-05-10T16:53:14.775Z,660.00
2023-05-10T16:54:14.780Z,912.00
2023-05-10T16:55:14.909Z,1136.00
2023-05-10T16:56:14.769Z,1232.00
2023-05-10T16:57:14.733Z,1348.00
2023-05-10T16:58:14.731Z,1388.00
2023-05-10T16:59:14.713Z,1288.00
2023-05-10T17:00:14.704Z,1108.00
2023-05-10T17:01:14.739Z,936.00
2023-05-10T17:02:14.736Z,804.00
2023-05-10T17:03:14.755Z,676.00
2023-05-10T17:04:14.764Z,588.00
2023-05-10T17:05:14.749Z,524.00
2023-05-10T17:06:14.660Z,512.00
2023-05-10T17:07:14.632Z,496.00
2023-05-10T17:08:14.640Z,496.00
2023-05-10T17:09:14.617Z,452.00
2023-05-10T17:10:14.606Z,444.00
2023-05-10T17:11:14.614Z,456.00
2023-05-10T17:12:14.631Z,476.00
2023-05-10T17:13:14.587Z,452.00
2023-05-10T17:14:14.538Z,456.00
2023-05-10T17:15:14.597Z,448.00
2023-05-10T17:16:14.692Z,444.00
2023-05-10T17:17:14.509Z,496.00
2023-05-10T17:18:14.494Z,432.00
2023-05-10T17:19:14.486Z,396.00
2023-05-10T17:20:14.477Z,436.00
2023-05-10T17:21:14.509Z,436.00
2023-05-10T17:22:14.452Z,416.00
2023-05-10T17:23:14.451Z,496.00
2023-05-10T17:24:14.430Z,472.00
2023-05-10T17:25:14.437Z,448.00
2023-05-10T17:26:14.429Z,452.00
2023-05-10T17:27:14.397Z,444.00
2023-05-10T17:28:14.380Z,432.00
2023-05-10T17:29:14.372Z,424.00
2023-05-10T17:30:14.370Z,416.00
2023-05-10T17:31:14.387Z,396.00
2023-05-10T17:32:14.346Z,380.00
2023-05-10T17:33:14.334Z,360.00
2023-05-10T17:34:14.318Z,388.00
2023-05-10T17:35:14.557Z,432.00
2023-05-10T17:36:14.317Z,440.00
2023-05-10T17:37:14.283Z,484.00
2023-05-10T17:38:14.269Z,524.00
2023-05-10T17:39:14.264Z,548.00
2023-05-10T17:40:14.268Z,628.00
2023-05-10T17:41:14.252Z,696.00
2023-05-10T17:42:14.229Z,660.00
2023-05-10T17:43:14.216Z,612.00
2023-05-10T17:44:14.215Z,724.00
2023-05-10T17:45:14.278Z,712.00